createdAt,value
2019-06-10T00:02:05.805Z,97.00
2019-06-10T00:04:35.560Z,97.00
2019-06-10T00:07:05.869Z,97.00
2019-06-10T00:09:36.031Z,97.00
2019-06-10T00:12:06.405Z,97.00
2019-06-10T00:14:36.696Z,97.00
2019-06-10T00:17:07.720Z,97.00
2019-06-10T00:19:37.280Z,97.00
2019-06-10T00:22:07.182Z,97.00
2019-06-10T00:24:37.931Z,97.00
2019-06-10T00:27:08.656Z,97.00
2019-06-10T00:29:40.737Z,97.00
2019-06-10T00:32:12.667Z,97.00
2019-06-10T00:34:41.911Z,97.00
2019-06-10T00:37:14.552Z,97.00
2019-06-10T00:39:42.631Z,97.00
2019-06-10T00:42:16.889Z,97.00
2019-06-10T00:44:46.452Z,97.00
2019-06-10T00:47:16.769Z,97.00
2019-06-10T00:49:51.294Z,97.00
2019-06-10T00:52:21.338Z,97.00
2019-06-10T00:54:58.033Z,97.00
2019-06-10T00:57:31.464Z,97.00
2019-06-10T01:00:01.746Z,97.00
2019-06-10T01:02:36.416Z,97.00
2019-06-10T01:05:01.372Z,97.00
2019-06-10T01:07:33.151Z,97.00
2019-06-10T01:10:08.942Z,97.00
2019-06-10T01:12:33.799Z,97.00
2019-06-10T01:15:03.286Z,97.00
2019-06-10T01:17:38.745Z,97.00
2019-06-10T01:20:08.378Z,97.00
2019-06-10T01:22:41.023Z,97.00
2019-06-10T01:25:12.382Z,97.00
2019-06-10T01:27:44.583Z,97.00
2019-06-10T01:30:21.748Z,97.00
2019-06-10T01:32:45.079Z,97.00
2019-06-10T01:35:15.721Z,97.00
2019-06-10T01:37:45.563Z,97.00
2019-06-10T01:40:16.830Z,97.00
2019-06-10T01:42:45.967Z,97.00
2019-06-10T01:45:16.128Z,97.00
2019-06-10T01:47:46.501Z,97.00
2019-06-10T01:50:17.690Z,97.00
2019-06-10T01:52:46.927Z,97.00
2019-06-10T01:55:17.030Z,97.00
2019-06-10T01:57:47.601Z,97.00
2019-06-10T02:00:22.790Z,97.00
2019-06-10T02:02:52.177Z,97.00
2019-06-10T02:05:22.702Z,97.00
2019-06-10T02:07:51.657Z,97.00
2019-06-10T02:10:22.978Z,97.00
2019-06-10T02:12:52.094Z,97.00
2019-06-10T02:15:22.763Z,97.00
2019-06-10T02:17:52.169Z,97.00
2019-06-10T02:20:23.891Z,97.00
2019-06-10T02:22:52.520Z,97.00
2019-06-10T02:25:22.999Z,97.00
2019-06-10T02:27:52.450Z,97.00
2019-06-10T02:30:38.622Z,97.00
2019-06-10T02:32:52.803Z,97.00
2019-06-10T02:35:30.496Z,97.00
2019-06-10T02:37:53.944Z,97.00
2019-06-10T02:40:31.809Z,97.00
2019-06-10T02:42:56.194Z,97.00
2019-06-10T02:45:32.362Z,97.00
2019-06-10T02:47:56.471Z,97.00
2019-06-10T02:50:58.926Z,97.00
2019-06-10T02:53:31.266Z,97.00
2019-06-10T02:55:59.234Z,97.00
2019-06-10T02:58:34.242Z,97.00
2019-06-10T03:00:59.591Z,97.00
2019-06-10T03:03:39.445Z,97.00
2019-06-10T03:06:00.046Z,97.00
2019-06-10T03:08:32.795Z,97.00
2019-06-10T03:11:03.521Z,97.00
2019-06-10T03:13:33.161Z,97.00
2019-06-10T03:16:10.325Z,97.00
2019-06-10T03:18:39.662Z,97.00
2019-06-10T03:21:09.020Z,97.00
2019-06-10T03:23:38.350Z,97.00
2019-06-10T03:26:07.777Z,97.00
2019-06-10T03:28:37.049Z,97.00
2019-06-10T03:31:06.513Z,97.00
2019-06-10T03:33:41.587Z,97.00
2019-06-10T03:36:07.041Z,97.00
2019-06-10T03:38:37.067Z,97.00
2019-06-10T03:41:06.610Z,97.00
2019-06-10T03:43:35.906Z,97.00
2019-06-10T03:46:05.227Z,97.00
2019-06-10T03:48:34.445Z,97.00
2019-06-10T03:51:03.836Z,97.00
2019-06-10T03:53:33.792Z,97.00
2019-06-10T03:56:03.667Z,97.00
2019-06-10T03:58:33.071Z,97.00
2019-06-10T04:01:03.183Z,97.00
2019-06-10T04:03:33.964Z,97.00
2019-06-10T04:06:03.513Z,97.00
2019-06-10T04:08:33.105Z,97.00
2019-06-10T04:11:03.178Z,97.00
2019-06-10T04:13:33.840Z,97.00
2019-06-10T04:16:03.460Z,97.00
2019-06-10T04:18:32.997Z,97.00
2019-06-10T04:21:02.608Z,97.00
2019-06-10T04:23:33.422Z,97.00
2019-06-10T04:26:03.127Z,97.00
2019-06-10T04:28:33.753Z,97.00
2019-06-10T04:31:03.144Z,97.00
2019-06-10T04:33:32.949Z,97.00
2019-06-10T04:36:03.048Z,97.00
2019-06-10T04:38:32.889Z,97.00
2019-06-10T04:41:03.354Z,97.00
2019-06-10T04:43:33.120Z,97.00
2019-06-10T04:46:03.712Z,97.00
2019-06-10T04:48:33.133Z,97.00
2019-06-10T04:51:03.011Z,97.00
2019-06-10T04:53:33.177Z,97.00
2019-06-10T04:56:06.757Z,97.00
2019-06-10T04:58:36.062Z,97.00
2019-06-10T05:01:05.422Z,97.00
2019-06-10T05:03:34.699Z,97.00
2019-06-10T05:06:04.082Z,97.00
2019-06-10T05:08:35.938Z,97.00
2019-06-10T05:11:05.258Z,97.00
2019-06-10T05:13:34.629Z,97.00
2019-06-10T05:16:04.417Z,97.00
2019-06-10T05:18:33.891Z,97.00
2019-06-10T05:21:03.258Z,97.00
2019-06-10T05:23:33.063Z,97.00
2019-06-10T05:26:02.960Z,97.00
2019-06-10T05:28:34.264Z,97.00
2019-06-10T05:31:03.489Z,97.00
2019-06-10T05:33:33.407Z,97.00
2019-06-10T05:36:03.068Z,97.00
2019-06-10T05:38:35.225Z,97.00
2019-06-10T05:41:03.505Z,97.00
2019-06-10T05:43:34.512Z,97.00
2019-06-10T05:46:04.004Z,97.00
2019-06-10T05:48:35.069Z,97.00
2019-06-10T05:51:06.779Z,97.00
2019-06-10T05:53:35.646Z,97.00
2019-06-10T05:56:04.965Z,97.00
2019-06-10T05:58:35.941Z,97.00
2019-06-10T06:01:05.523Z,97.00
2019-06-10T06:03:36.859Z,97.00
2019-06-10T06:06:05.843Z,97.00
2019-06-10T06:08:35.559Z,97.00
2019-06-10T06:11:04.957Z,97.00
2019-06-10T06:13:36.032Z,97.00
2019-06-10T06:16:05.347Z,97.00
2019-06-10T06:18:36.442Z,97.00
2019-06-10T06:21:20.793Z,97.00
2019-06-10T06:23:38.423Z,97.00
2019-06-10T06:26:07.831Z,97.00
2019-06-10T06:28:38.271Z,97.00
2019-06-10T06:31:07.733Z,97.00
2019-06-10T06:33:39.732Z,97.00
2019-06-10T06:36:08.140Z,97.00
2019-06-10T06:38:38.462Z,97.00
2019-06-10T06:41:07.838Z,97.00
2019-06-10T06:43:41.998Z,97.00
2019-06-10T06:46:09.099Z,97.00
2019-06-10T06:48:40.314Z,97.00
2019-06-10T06:51:09.580Z,97.00
2019-06-10T06:53:45.338Z,97.00
2019-06-10T06:56:12.400Z,97.00
2019-06-10T06:58:43.325Z,97.00
2019-06-10T07:01:14.604Z,97.00
2019-06-10T07:03:44.964Z,97.00
2019-06-10T07:06:15.725Z,97.00
2019-06-10T07:09:00.448Z,97.00
2019-06-10T07:11:18.825Z,97.00
2019-06-10T07:13:48.188Z,97.00
2019-06-10T07:16:17.577Z,97.00
2019-06-10T07:18:50.265Z,97.00
2019-06-10T07:21:17.858Z,97.00
2019-06-10T07:23:47.221Z,97.00
2019-06-10T07:26:16.602Z,97.00
2019-06-10T07:28:47.535Z,97.00
2019-06-10T07:31:24.094Z,97.00
2019-06-10T07:33:48.607Z,97.00
2019-06-10T07:36:17.971Z,97.00
2019-06-10T07:38:49.167Z,97.00
2019-06-10T07:41:18.397Z,97.00
2019-06-10T07:43:49.778Z,97.00
2019-06-10T07:46:18.834Z,97.00
2019-06-10T07:48:48.718Z,97.00
2019-06-10T07:51:19.186Z,97.00
2019-06-10T07:53:48.447Z,97.00
2019-06-10T07:56:17.873Z,97.00
2019-06-10T07:58:47.804Z,97.00
2019-06-10T08:01:17.280Z,97.00
2019-06-10T08:03:46.706Z,97.00
2019-06-10T08:06:16.180Z,96.60
2019-06-10T08:08:45.568Z,96.10
2019-06-10T08:11:14.871Z,96.30
2019-06-10T08:13:46.197Z,95.40
2019-06-10T08:16:15.158Z,94.80
2019-06-10T08:19:11.152Z,94.60
2019-06-10T08:21:15.497Z,95.10
2019-06-10T08:23:47.424Z,94.70
2019-06-10T08:26:15.972Z,95.00
2019-06-10T08:28:46.708Z,94.90
2019-06-10T08:31:16.334Z,94.50
2019-06-10T08:33:47.867Z,93.80
2019-06-10T08:36:16.756Z,92.80
2019-06-10T08:38:48.631Z,92.00
2019-06-10T08:41:17.142Z,91.60
2019-06-10T08:43:48.385Z,91.30
2019-06-10T08:46:17.493Z,91.10
2019-06-10T08:48:48.175Z,90.80
2019-06-10T08:51:17.883Z,89.90
2019-06-10T08:53:49.934Z,89.60
2019-06-10T08:56:18.155Z,89.40
2019-06-10T08:58:49.693Z,88.40
2019-06-10T09:01:22.133Z,87.50
2019-06-10T09:03:53.482Z,87.40
2019-06-10T09:06:23.039Z,86.90
2019-06-10T09:08:54.873Z,86.40
2019-06-10T09:11:24.358Z,86.30
2019-06-10T09:13:53.709Z,85.60
2019-06-10T09:16:23.147Z,85.10
2019-06-10T09:18:55.357Z,85.20
2019-06-10T09:21:23.905Z,85.70
2019-06-10T09:23:59.776Z,85.30
2019-06-10T09:26:24.072Z,84.40
2019-06-10T09:29:13.446Z,85.20
2019-06-10T09:31:46.793Z,86.20
2019-06-10T09:34:14.061Z,85.50
2019-06-10T09:36:46.688Z,85.50
2019-06-10T09:39:14.455Z,84.50
2019-06-10T09:41:52.290Z,84.20
2019-06-10T09:44:18.254Z,82.90
2019-06-10T09:46:52.043Z,81.70
2019-06-10T09:49:22.880Z,81.90
2019-06-10T09:51:57.046Z,80.40
2019-06-10T09:54:23.338Z,80.50
2019-06-10T09:56:54.694Z,80.40
2019-06-10T09:59:23.857Z,80.30
2019-06-10T10:01:58.091Z,79.70
2019-06-10T10:04:24.205Z,79.90
2019-06-10T10:06:57.210Z,79.10
2019-06-10T10:09:26.430Z,79.10
2019-06-10T10:11:56.224Z,79.10
2019-06-10T10:14:25.634Z,79.00
2019-06-10T10:17:00.181Z,80.00
2019-06-10T10:19:29.331Z,80.20
2019-06-10T10:21:59.041Z,80.50
2019-06-10T10:24:28.468Z,80.50
2019-06-10T10:27:01.692Z,81.50
2019-06-10T10:29:28.924Z,81.70
2019-06-10T10:32:06.771Z,82.80
2019-06-10T10:34:36.113Z,82.40
2019-06-10T10:37:05.339Z,82.80
2019-06-10T10:39:34.645Z,82.00
2019-06-10T10:42:04.041Z,82.00
2019-06-10T10:44:33.431Z,81.90
2019-06-10T10:47:03.638Z,82.00
2019-06-10T10:49:33.409Z,82.50
2019-06-10T10:52:07.994Z,82.40
2019-06-10T10:54:37.316Z,82.60
2019-06-10T10:57:06.760Z,81.80
2019-06-10T10:59:36.060Z,83.20
2019-06-10T11:02:05.412Z,82.00
2019-06-10T11:04:35.581Z,81.70
2019-06-10T11:07:04.908Z,80.40
2019-06-10T11:09:34.267Z,80.30
2019-06-10T11:12:04.231Z,81.20
2019-06-10T11:14:35.604Z,81.50
2019-06-10T11:17:05.038Z,82.00
2019-06-10T11:19:34.425Z,81.20
2019-06-10T11:22:07.919Z,79.90
2019-06-10T11:24:41.155Z,79.90
2019-06-10T11:27:08.850Z,81.00
2019-06-10T11:29:38.099Z,80.00
2019-06-10T11:32:07.441Z,80.40
2019-06-10T11:34:45.813Z,80.60
2019-06-10T11:37:18.380Z,80.30
2019-06-10T11:39:48.129Z,79.90
2019-06-10T11:42:17.642Z,79.40
2019-06-10T11:44:46.973Z,78.30
2019-06-10T11:47:16.271Z,79.40
2019-06-10T11:49:46.676Z,80.30
2019-06-10T11:52:16.384Z,80.50
2019-06-10T11:54:55.793Z,81.50
2019-06-10T11:57:16.683Z,81.20
2019-06-10T11:59:46.109Z,81.60
2019-06-10T12:02:16.421Z,81.50
2019-06-10T12:04:45.633Z,82.00
2019-06-10T12:07:15.010Z,82.30
2019-06-10T12:09:44.512Z,83.50
2019-06-10T12:12:13.870Z,83.40
2019-06-10T12:14:43.327Z,83.40
2019-06-10T12:17:29.092Z,82.70
2019-06-10T12:19:43.488Z,82.50
2019-06-10T12:22:13.338Z,83.00
2019-06-10T12:24:43.354Z,81.80
2019-06-10T12:27:13.182Z,81.80
2019-06-10T12:29:42.697Z,82.90
2019-06-10T12:32:13.550Z,84.00
2019-06-10T12:34:46.143Z,83.70
2019-06-10T12:37:15.892Z,84.40
2019-06-10T12:39:44.914Z,84.90
2019-06-10T12:42:14.463Z,86.10
2019-06-10T12:44:43.708Z,86.30
2019-06-10T12:47:12.893Z,85.90
2019-06-10T12:49:42.726Z,86.00
2019-06-10T12:52:12.657Z,86.30
2019-06-10T12:54:42.373Z,86.60
2019-06-10T12:57:12.392Z,86.10
2019-06-10T12:59:43.056Z,86.70
2019-06-10T13:02:22.733Z,86.90
2019-06-10T13:04:44.894Z,87.30
2019-06-10T13:07:15.397Z,87.40
2019-06-10T13:09:46.475Z,87.60
2019-06-10T13:12:16.102Z,88.10
2019-06-10T13:14:47.763Z,88.50
2019-06-10T13:17:17.115Z,89.30
2019-06-10T13:19:46.499Z,89.90
2019-06-10T13:22:15.750Z,89.90
2019-06-10T13:24:45.012Z,90.60
2019-06-10T13:27:14.290Z,91.10
2019-06-10T13:29:43.944Z,91.50
2019-06-10T13:32:13.323Z,92.30
2019-06-10T13:34:45.683Z,92.00
2019-06-10T13:37:16.111Z,92.70
2019-06-10T13:39:45.671Z,93.20
2019-06-10T13:42:14.978Z,93.30
2019-06-10T13:44:44.242Z,93.60
2019-06-10T13:47:14.974Z,93.60
2019-06-10T13:49:44.535Z,93.30
2019-06-10T13:52:16.602Z,92.80
2019-06-10T13:54:45.391Z,92.80
2019-06-10T13:57:15.474Z,92.20
2019-06-10T13:59:46.402Z,92.40
2019-06-10T14:02:15.972Z,92.00
2019-06-10T14:04:45.471Z,91.70
2019-06-10T14:07:17.346Z,91.60
2019-06-10T14:09:45.816Z,91.80
2019-06-10T14:12:17.590Z,92.60
2019-06-10T14:14:46.524Z,92.50
2019-06-10T14:17:22.636Z,92.50
2019-06-10T14:19:49.662Z,92.70
2019-06-10T14:22:18.974Z,93.00
2019-06-10T14:24:48.336Z,93.00
2019-06-10T14:27:24.811Z,93.40
2019-06-10T14:29:54.856Z,93.30
2019-06-10T14:32:24.213Z,93.20
2019-06-10T14:34:53.591Z,93.90
2019-06-10T14:37:34.933Z,94.40
2019-06-10T14:39:53.974Z,94.10
2019-06-10T14:42:23.325Z,94.20
2019-06-10T14:44:52.759Z,94.10
2019-06-10T14:47:22.983Z,93.90
2019-06-10T14:49:53.035Z,93.90
2019-06-10T14:52:22.807Z,94.30
2019-06-10T14:54:53.263Z,94.10
2019-06-10T14:57:23.075Z,93.90
2019-06-10T14:59:53.198Z,93.90
2019-06-10T15:02:22.723Z,93.50
2019-06-10T15:04:53.196Z,93.20
2019-06-10T15:07:23.692Z,93.90
2019-06-10T15:09:53.298Z,93.80
2019-06-10T15:12:22.885Z,93.90
2019-06-10T15:14:52.398Z,94.10
2019-06-10T15:17:21.761Z,94.70
2019-06-10T15:19:53.005Z,94.70
2019-06-10T15:22:23.660Z,94.60
2019-06-10T15:24:53.314Z,94.80
2019-06-10T15:27:29.906Z,94.00
2019-06-10T15:29:53.672Z,93.60
2019-06-10T15:32:33.776Z,94.20
2019-06-10T15:34:53.920Z,94.00
2019-06-10T15:37:24.029Z,94.20
2019-06-10T15:39:53.726Z,94.40
2019-06-10T15:42:23.248Z,95.50
2019-06-10T15:44:55.420Z,95.30
2019-06-10T15:47:26.433Z,95.30
2019-06-10T15:49:54.618Z,95.30
2019-06-10T15:52:25.093Z,95.80
2019-06-10T15:54:54.665Z,95.80
2019-06-10T15:57:38.572Z,95.90
2019-06-10T15:59:55.016Z,95.80
2019-06-10T16:02:25.549Z,95.80
2019-06-10T16:04:54.960Z,95.60
2019-06-10T16:07:25.625Z,95.60
2019-06-10T16:09:55.074Z,95.50
2019-06-10T16:12:26.778Z,95.80
2019-06-10T16:14:55.493Z,95.70
2019-06-10T16:17:24.742Z,96.30
2019-06-10T16:19:54.887Z,96.30
2019-06-10T16:22:26.182Z,96.40
2019-06-10T16:24:55.338Z,96.60
2019-06-10T16:27:43.613Z,97.00
2019-06-10T16:29:55.628Z,97.00
2019-06-10T16:32:26.529Z,97.00
2019-06-10T16:34:55.882Z,97.00
2019-06-10T16:37:25.766Z,97.00
2019-06-10T16:39:56.326Z,97.00
2019-06-10T16:42:27.417Z,97.00
2019-06-10T16:44:56.847Z,97.00
2019-06-10T16:47:27.339Z,97.00
2019-06-10T16:49:56.872Z,97.00
2019-06-10T16:52:27.359Z,97.00
2019-06-10T16:54:56.993Z,97.00
2019-06-10T16:57:27.300Z,97.00
2019-06-10T16:59:56.824Z,97.00
2019-06-10T17:02:26.851Z,97.00
2019-06-10T17:04:58.983Z,97.00
2019-06-10T17:07:29.202Z,97.00
2019-06-10T17:09:58.564Z,97.00
2019-06-10T17:12:28.016Z,97.00
2019-06-10T17:14:57.470Z,97.00
2019-06-10T17:17:28.666Z,97.00
2019-06-10T17:19:58.908Z,97.00
2019-06-10T17:22:30.057Z,97.00
2019-06-10T17:24:59.135Z,97.00
2019-06-10T17:27:29.527Z,97.00
2019-06-10T17:29:58.994Z,97.00
2019-06-10T17:32:28.457Z,97.00
2019-06-10T17:34:57.839Z,97.00
2019-06-10T17:37:27.179Z,97.00
2019-06-10T17:39:59.516Z,97.00
2019-06-10T17:42:33.430Z,97.00
2019-06-10T17:45:02.362Z,97.00
2019-06-10T17:47:32.336Z,97.00
2019-06-10T17:50:02.434Z,97.00
2019-06-10T17:52:34.164Z,97.00
2019-06-10T17:55:04.083Z,97.00
2019-06-10T17:57:36.077Z,97.00
2019-06-10T18:00:11.456Z,97.00
2019-06-10T18:02:39.319Z,97.00
2019-06-10T18:05:08.315Z,97.00
2019-06-10T18:07:37.637Z,97.00
2019-06-10T18:10:07.579Z,97.00
2019-06-10T18:12:36.922Z,97.00
2019-06-10T18:15:07.659Z,97.00
2019-06-10T18:17:42.551Z,97.00
2019-06-10T18:20:13.608Z,97.00
2019-06-10T18:22:43.111Z,97.00
2019-06-10T18:25:13.399Z,97.00
2019-06-10T18:27:43.011Z,97.00
2019-06-10T18:30:14.378Z,97.00
2019-06-10T18:32:43.916Z,97.00
2019-06-10T18:35:14.311Z,97.00
2019-06-10T18:37:44.055Z,97.00
2019-06-10T18:40:14.657Z,97.00
2019-06-10T18:42:44.109Z,97.00
2019-06-10T18:45:14.980Z,97.00
2019-06-10T18:47:44.313Z,97.00
2019-06-10T18:50:15.389Z,97.00
2019-06-10T18:52:44.794Z,97.00
2019-06-10T18:55:15.828Z,97.00
2019-06-10T18:57:49.876Z,97.00
2019-06-10T19:00:19.891Z,97.00
2019-06-10T19:02:49.337Z,97.00
2019-06-10T19:05:22.437Z,97.00
2019-06-10T19:07:52.881Z,97.00
2019-06-10T19:10:23.237Z,97.00
2019-06-10T19:12:53.139Z,97.00
2019-06-10T19:15:23.143Z,97.00
2019-06-10T19:17:55.795Z,97.00
2019-06-10T19:20:25.655Z,97.00
2019-06-10T19:22:59.250Z,97.00
2019-06-10T19:25:28.643Z,97.00
2019-06-10T19:27:57.991Z,97.00
2019-06-10T19:30:31.103Z,97.00
2019-06-10T19:33:02.486Z,97.00
2019-06-10T19:35:33.588Z,97.00
2019-06-10T19:38:02.602Z,97.00
2019-06-10T19:40:33.638Z,97.00
2019-06-10T19:43:06.199Z,97.00
2019-06-10T19:45:35.512Z,97.00
2019-06-10T19:48:04.927Z,97.00
2019-06-10T19:50:36.003Z,97.00
2019-06-10T19:53:05.415Z,97.00
2019-06-10T19:55:35.207Z,97.00
2019-06-10T19:58:04.522Z,97.00
2019-06-10T20:00:34.734Z,97.00
2019-06-10T20:03:05.301Z,97.00
2019-06-10T20:05:36.126Z,97.00
2019-06-10T20:08:05.844Z,97.00
2019-06-10T20:10:35.965Z,97.00
2019-06-10T20:13:05.431Z,97.00
2019-06-10T20:15:37.383Z,97.00
2019-06-10T20:18:06.933Z,97.00
2019-06-10T20:20:36.347Z,97.00
2019-06-10T20:23:08.647Z,97.00
2019-06-10T20:25:41.033Z,97.00
2019-06-10T20:28:13.074Z,97.00
2019-06-10T20:30:44.403Z,97.00
2019-06-10T20:33:15.752Z,97.00
2019-06-10T20:35:45.688Z,97.00
2019-06-10T20:38:15.269Z,97.00
2019-06-10T20:40:46.003Z,97.00
2019-06-10T20:43:16.051Z,97.00
2019-06-10T20:45:47.883Z,97.00
2019-06-10T20:48:16.582Z,97.00
2019-06-10T20:50:47.353Z,97.00
2019-06-10T20:53:18.668Z,97.00
2019-06-10T20:55:54.004Z,97.00
2019-06-10T20:58:19.373Z,97.00
2019-06-10T21:00:53.915Z,97.00
2019-06-10T21:03:22.615Z,97.00
2019-06-10T21:05:53.519Z,97.00
2019-06-10T21:08:23.828Z,97.00
2019-06-10T21:10:54.595Z,97.00
2019-06-10T21:13:24.124Z,97.00
2019-06-10T21:15:55.267Z,97.00
2019-06-10T21:18:24.559Z,97.00
2019-06-10T21:20:56.277Z,97.00
2019-06-10T21:23:24.904Z,97.00
2019-06-10T21:25:54.221Z,97.00
2019-06-10T21:28:23.638Z,97.00
2019-06-10T21:30:57.728Z,97.00
2019-06-10T21:33:24.132Z,97.00
2019-06-10T21:35:54.830Z,97.00
2019-06-10T21:38:24.556Z,97.00
2019-06-10T21:40:54.248Z,97.00
2019-06-10T21:43:23.759Z,97.00
2019-06-10T21:45:57.592Z,97.00
2019-06-10T21:48:26.098Z,97.00
2019-06-10T21:50:56.002Z,97.00
2019-06-10T21:53:25.616Z,97.00
2019-06-10T21:55:55.355Z,97.00
2019-06-10T21:58:24.803Z,97.00
2019-06-10T22:01:08.342Z,97.00
2019-06-10T22:03:26.890Z,97.00
2019-06-10T22:05:59.298Z,97.00
2019-06-10T22:08:28.951Z,97.00
2019-06-10T22:10:58.399Z,97.00
2019-06-10T22:13:28.004Z,97.00
2019-06-10T22:15:57.411Z,97.00
2019-06-10T22:18:27.469Z,97.00
2019-06-10T22:20:57.739Z,97.00
2019-06-10T22:23:27.217Z,97.00
2019-06-10T22:25:57.738Z,97.00
2019-06-10T22:28:27.270Z,97.00
2019-06-10T22:31:15.025Z,97.00
2019-06-10T22:33:28.677Z,97.00
2019-06-10T22:35:57.940Z,97.00
2019-06-10T22:38:27.153Z,97.00
2019-06-10T22:40:57.023Z,97.00
2019-06-10T22:43:26.461Z,97.00
2019-06-10T22:45:57.202Z,97.00
2019-06-10T22:48:26.638Z,97.00
2019-06-10T22:50:56.135Z,97.00
2019-06-10T22:53:25.350Z,97.00
2019-06-10T22:55:56.524Z,97.00
2019-06-10T22:58:25.695Z,97.00
2019-06-10T23:00:56.567Z,97.00
2019-06-10T23:03:26.020Z,97.00
2019-06-10T23:05:56.552Z,97.00
2019-06-10T23:08:26.143Z,97.00
2019-06-10T23:10:58.126Z,97.00
2019-06-10T23:13:26.788Z,97.00
2019-06-10T23:15:57.937Z,97.00
2019-06-10T23:18:27.062Z,97.00
2019-06-10T23:20:57.932Z,97.00
2019-06-10T23:23:27.346Z,97.00
2019-06-10T23:25:57.990Z,97.00
2019-06-10T23:28:27.339Z,97.00
2019-06-10T23:30:58.877Z,97.00
2019-06-10T23:33:27.748Z,97.00
2019-06-10T23:35:58.592Z,97.00
2019-06-10T23:38:28.281Z,97.00
2019-06-10T23:40:58.785Z,97.00
2019-06-10T23:43:28.316Z,97.00
2019-06-10T23:45:57.819Z,97.00
2019-06-10T23:48:27.292Z,97.00
2019-06-10T23:50:57.766Z,97.00
2019-06-10T23:53:27.793Z,97.00
2019-06-10T23:55:57.997Z,97.00
2019-06-10T23:58:27.469Z,97.00
